sensor_id;sensor_type;location;lat;lon;timestamp;temperature;humidity
38223;DHT22;24024;51.186;6.458;2022-07-06T00:00:21;16.80;57.60
38223;DHT22;24024;51.186;6.458;2022-07-06T00:02:54;16.80;57.40
38223;DHT22;24024;51.186;6.458;2022-07-06T00:05:21;16.70;57.50
38223;DHT22;24024;51.186;6.458;2022-07-06T00:07:48;16.60;57.80
38223;DHT22;24024;51.186;6.458;2022-07-06T00:10:15;16.70;57.70
38223;DHT22;24024;51.186;6.458;2022-07-06T00:12:42;16.60;57.90
38223;DHT22;24024;51.186;6.458;2022-07-06T00:15:11;16.60;58.00
38223;DHT22;24024;51.186;6.458;2022-07-06T00:17:40;16.60;58.10
38223;DHT22;24024;51.186;6.458;2022-07-06T00:20:07;16.70;57.90
38223;DHT22;24024;51.186;6.458;2022-07-06T00:22:34;16.70;57.80
38223;DHT22;24024;51.186;6.458;2022-07-06T00:25:00;16.60;57.80
38223;DHT22;24024;51.186;6.458;2022-07-06T00:27:29;16.60;58.00
38223;DHT22;24024;51.186;6.458;2022-07-06T00:29:56;16.50;58.30
38223;DHT22;24024;51.186;6.458;2022-07-06T00:32:25;16.60;58.50
38223;DHT22;24024;51.186;6.458;2022-07-06T00:34:56;16.60;58.00
38223;DHT22;24024;51.186;6.458;2022-07-06T00:37:22;16.60;58.10
38223;DHT22;24024;51.186;6.458;2022-07-06T00:39:50;16.60;58.20
38223;DHT22;24024;51.186;6.458;2022-07-06T00:42:17;16.50;58.20
38223;DHT22;24024;51.186;6.458;2022-07-06T00:44:46;16.40;58.60
38223;DHT22;24024;51.186;6.458;2022-07-06T00:47:13;16.40;58.80
38223;DHT22;24024;51.186;6.458;2022-07-06T00:49:39;16.30;59.00
38223;DHT22;24024;51.186;6.458;2022-07-06T00:52:27;16.30;59.00
38223;DHT22;24024;51.186;6.458;2022-07-06T00:54:54;16.40;58.70
38223;DHT22;24024;51.186;6.458;2022-07-06T00:57:26;16.30;59.00
38223;DHT22;24024;51.186;6.458;2022-07-06T00:59:55;16.20;59.30
38223;DHT22;24024;51.186;6.458;2022-07-06T01:02:24;16.10;59.20
38223;DHT22;24024;51.186;6.458;2022-07-06T01:04:56;16.00;59.80
38223;DHT22;24024;51.186;6.458;2022-07-06T01:07:27;16.10;59.60
38223;DHT22;24024;51.186;6.458;2022-07-06T01:09:57;16.10;59.80
38223;DHT22;24024;51.186;6.458;2022-07-06T01:12:24;15.90;60.10
38223;DHT22;24024;51.186;6.458;2022-07-06T01:14:51;15.80;60.40
38223;DHT22;24024;51.186;6.458;2022-07-06T01:17:21;15.80;60.50
38223;DHT22;24024;51.186;6.458;2022-07-06T01:19:48;15.90;60.20
38223;DHT22;24024;51.186;6.458;2022-07-06T01:22:14;15.90;60.20
38223;DHT22;24024;51.186;6.458;2022-07-06T01:24:43;16.00;60.00
38223;DHT22;24024;51.186;6.458;2022-07-06T01:27:15;15.80;60.50
38223;DHT22;24024;51.186;6.458;2022-07-06T01:29:42;15.80;60.70
38223;DHT22;24024;51.186;6.458;2022-07-06T01:32:08;15.70;60.70
38223;DHT22;24024;51.186;6.458;2022-07-06T01:34:35;15.60;61.00
38223;DHT22;24024;51.186;6.458;2022-07-06T01:37:02;15.50;61.20
38223;DHT22;24024;51.186;6.458;2022-07-06T01:39:29;15.50;61.30
38223;DHT22;24024;51.186;6.458;2022-07-06T01:41:58;15.50;61.60
38223;DHT22;24024;51.186;6.458;2022-07-06T01:44:25;15.50;61.40
38223;DHT22;24024;51.186;6.458;2022-07-06T01:46:56;15.60;61.20
38223;DHT22;24024;51.186;6.458;2022-07-06T01:49:23;15.60;61.00
38223;DHT22;24024;51.186;6.458;2022-07-06T01:51:49;15.50;61.40
38223;DHT22;24024;51.186;6.458;2022-07-06T01:54:16;15.40;61.80
38223;DHT22;24024;51.186;6.458;2022-07-06T01:56:45;15.40;61.90
38223;DHT22;24024;51.186;6.458;2022-07-06T01:59:12;15.40;61.80
38223;DHT22;24024;51.186;6.458;2022-07-06T02:01:39;15.30;61.90
38223;DHT22;24024;51.186;6.458;2022-07-06T02:04:08;15.30;62.40
38223;DHT22;24024;51.186;6.458;2022-07-06T02:06:35;15.30;62.20
38223;DHT22;24024;51.186;6.458;2022-07-06T02:09:03;15.30;62.20
38223;DHT22;24024;51.186;6.458;2022-07-06T02:11:32;15.40;62.00
38223;DHT22;24024;51.186;6.458;2022-07-06T02:13:59;15.30;62.20
38223;DHT22;24024;51.186;6.458;2022-07-06T02:16:26;15.20;62.40
38223;DHT22;24024;51.186;6.458;2022-07-06T02:18:58;15.30;62.60
38223;DHT22;24024;51.186;6.458;2022-07-06T02:21:24;15.20;62.90
38223;DHT22;24024;51.186;6.458;2022-07-06T02:23:51;15.20;63.10
38223;DHT22;24024;51.186;6.458;2022-07-06T02:26:20;15.20;63.10
38223;DHT22;24024;51.186;6.458;2022-07-06T02:28:47;15.30;63.00
38223;DHT22;24024;51.186;6.458;2022-07-06T02:31:14;15.10;63.30
38223;DHT22;24024;51.186;6.458;2022-07-06T02:33:41;15.10;63.70
38223;DHT22;24024;51.186;6.458;2022-07-06T02:36:15;15.10;63.70
38223;DHT22;24024;51.186;6.458;2022-07-06T02:38:42;15.10;63.60
38223;DHT22;24024;51.186;6.458;2022-07-06T02:41:10;15.10;63.80
38223;DHT22;24024;51.186;6.458;2022-07-06T02:43:38;15.00;64.10
38223;DHT22;24024;51.186;6.458;2022-07-06T02:46:05;15.00;63.80
38223;DHT22;24024;51.186;6.458;2022-07-06T02:48:32;14.90;64.30
38223;DHT22;24024;51.186;6.458;2022-07-06T02:50:59;14.80;64.40
38223;DHT22;24024;51.186;6.458;2022-07-06T02:53:26;14.90;64.70
38223;DHT22;24024;51.186;6.458;2022-07-06T02:55:52;14.90;64.40
38223;DHT22;24024;51.186;6.458;2022-07-06T02:58:21;15.00;64.40
38223;DHT22;24024;51.186;6.458;2022-07-06T03:00:51;15.00;64.40
38223;DHT22;24024;51.186;6.458;2022-07-06T03:03:20;15.00;64.40
38223;DHT22;24024;51.186;6.458;2022-07-06T03:05:50;15.10;64.10
38223;DHT22;24024;51.186;6.458;2022-07-06T03:08:17;15.20;63.70
38223;DHT22;24024;51.186;6.458;2022-07-06T03:10:46;15.20;63.50
38223;DHT22;24024;51.186;6.458;2022-07-06T03:13:12;15.10;63.70
38223;DHT22;24024;51.186;6.458;2022-07-06T03:15:39;15.20;63.50
38223;DHT22;24024;51.186;6.458;2022-07-06T03:18:10;15.10;63.40
38223;DHT22;24024;51.186;6.458;2022-07-06T03:20:39;14.90;64.10
38223;DHT22;24024;51.186;6.458;2022-07-06T03:23:06;15.00;64.10
38223;DHT22;24024;51.186;6.458;2022-07-06T03:25:33;15.00;64.10
38223;DHT22;24024;51.186;6.458;2022-07-06T03:28:02;15.00;64.20
38223;DHT22;24024;51.186;6.458;2022-07-06T03:30:29;15.00;64.20
38223;DHT22;24024;51.186;6.458;2022-07-06T03:33:00;15.00;64.20
38223;DHT22;24024;51.186;6.458;2022-07-06T03:35:29;15.00;64.20
38223;DHT22;24024;51.186;6.458;2022-07-06T03:37:59;15.00;64.50
38223;DHT22;24024;51.186;6.458;2022-07-06T03:40:25;14.90;65.10
38223;DHT22;24024;51.186;6.458;2022-07-06T03:42:52;14.80;65.10
38223;DHT22;24024;51.186;6.458;2022-07-06T03:45:23;14.80;65.50
38223;DHT22;24024;51.186;6.458;2022-07-06T03:47:52;14.70;65.60
38223;DHT22;24024;51.186;6.458;2022-07-06T03:50:22;14.70;65.80
38223;DHT22;24024;51.186;6.458;2022-07-06T03:52:48;14.60;66.00
38223;DHT22;24024;51.186;6.458;2022-07-06T03:55:15;14.70;66.30
38223;DHT22;24024;51.186;6.458;2022-07-06T03:57:42;14.70;66.00
38223;DHT22;24024;51.186;6.458;2022-07-06T04:00:10;14.70;65.90
38223;DHT22;24024;51.186;6.458;2022-07-06T04:02:37;14.70;66.10
38223;DHT22;24024;51.186;6.458;2022-07-06T04:05:07;14.60;66.10
38223;DHT22;24024;51.186;6.458;2022-07-06T04:07:34;14.60;66.30
38223;DHT22;24024;51.186;6.458;2022-07-06T04:10:01;14.60;66.70
38223;DHT22;24024;51.186;6.458;2022-07-06T04:12:30;14.60;66.50
38223;DHT22;24024;51.186;6.458;2022-07-06T04:14:57;14.50;66.80
38223;DHT22;24024;51.186;6.458;2022-07-06T04:17:24;14.50;66.70
38223;DHT22;24024;51.186;6.458;2022-07-06T04:20:09;14.50;66.70
38223;DHT22;24024;51.186;6.458;2022-07-06T04:22:39;14.50;66.80
38223;DHT22;24024;51.186;6.458;2022-07-06T04:25:06;14.50;66.70
38223;DHT22;24024;51.186;6.458;2022-07-06T04:27:34;14.50;66.50
38223;DHT22;24024;51.186;6.458;2022-07-06T04:30:03;14.40;66.70
38223;DHT22;24024;51.186;6.458;2022-07-06T04:32:30;14.30;67.00
38223;DHT22;24024;51.186;6.458;2022-07-06T04:34:57;14.30;67.30
38223;DHT22;24024;51.186;6.458;2022-07-06T04:37:24;14.30;67.50
38223;DHT22;24024;51.186;6.458;2022-07-06T04:39:51;14.40;67.10
38223;DHT22;24024;51.186;6.458;2022-07-06T04:42:20;14.30;67.00
38223;DHT22;24024;51.186;6.458;2022-07-06T04:44:47;14.40;67.20
38223;DHT22;24024;51.186;6.458;2022-07-06T04:47:14;14.40;67.20
38223;DHT22;24024;51.186;6.458;2022-07-06T04:49:41;14.40;67.10
38223;DHT22;24024;51.186;6.458;2022-07-06T04:52:08;14.50;67.00
38223;DHT22;24024;51.186;6.458;2022-07-06T04:54:35;14.50;66.80
38223;DHT22;24024;51.186;6.458;2022-07-06T04:57:05;14.40;67.00
38223;DHT22;24024;51.186;6.458;2022-07-06T04:59:38;14.50;66.80
38223;DHT22;24024;51.186;6.458;2022-07-06T05:02:05;14.50;67.00
38223;DHT22;24024;51.186;6.458;2022-07-06T05:04:32;14.50;67.10
38223;DHT22;24024;51.186;6.458;2022-07-06T05:06:59;14.50;67.00
38223;DHT22;24024;51.186;6.458;2022-07-06T05:09:26;14.40;67.20
38223;DHT22;24024;51.186;6.458;2022-07-06T05:11:52;14.50;67.30
38223;DHT22;24024;51.186;6.458;2022-07-06T05:14:19;14.50;67.20
38223;DHT22;24024;51.186;6.458;2022-07-06T05:16:46;14.50;67.20
38223;DHT22;24024;51.186;6.458;2022-07-06T05:19:15;14.50;67.20
38223;DHT22;24024;51.186;6.458;2022-07-06T05:21:42;14.50;67.10
38223;DHT22;24024;51.186;6.458;2022-07-06T05:24:09;14.50;67.20
38223;DHT22;24024;51.186;6.458;2022-07-06T05:26:36;14.40;67.60
38223;DHT22;24024;51.186;6.458;2022-07-06T05:29:03;14.30;67.80
38223;DHT22;24024;51.186;6.458;2022-07-06T05:31:29;14.30;68.00
38223;DHT22;24024;51.186;6.458;2022-07-06T05:33:56;14.40;68.10
38223;DHT22;24024;51.186;6.458;2022-07-06T05:36:26;14.50;67.90
38223;DHT22;24024;51.186;6.458;2022-07-06T05:38:55;14.50;68.10
38223;DHT22;24024;51.186;6.458;2022-07-06T05:41:21;14.50;68.20
38223;DHT22;24024;51.186;6.458;2022-07-06T05:43:53;14.50;68.20
38223;DHT22;24024;51.186;6.458;2022-07-06T05:46:22;14.50;68.30
38223;DHT22;24024;51.186;6.458;2022-07-06T05:48:49;14.60;68.40
38223;DHT22;24024;51.186;6.458;2022-07-06T05:51:34;14.70;68.30
38223;DHT22;24024;51.186;6.458;2022-07-06T05:54:04;14.80;68.10
38223;DHT22;24024;51.186;6.458;2022-07-06T05:56:30;14.90;68.10
38223;DHT22;24024;51.186;6.458;2022-07-06T05:58:59;15.00;67.80
38223;DHT22;24024;51.186;6.458;2022-07-06T06:01:26;15.10;67.40
38223;DHT22;24024;51.186;6.458;2022-07-06T06:03:53;15.20;67.10
38223;DHT22;24024;51.186;6.458;2022-07-06T06:06:20;15.20;66.90
38223;DHT22;24024;51.186;6.458;2022-07-06T06:08:47;15.30;66.80
38223;DHT22;24024;51.186;6.458;2022-07-06T06:11:14;15.30;66.70
38223;DHT22;24024;51.186;6.458;2022-07-06T06:13:40;15.30;66.60
38223;DHT22;24024;51.186;6.458;2022-07-06T06:16:07;15.40;66.70
38223;DHT22;24024;51.186;6.458;2022-07-06T06:18:35;15.40;67.00
38223;DHT22;24024;51.186;6.458;2022-07-06T06:21:10;15.40;66.80
38223;DHT22;24024;51.186;6.458;2022-07-06T06:23:37;15.50;66.70
38223;DHT22;24024;51.186;6.458;2022-07-06T06:26:04;15.50;66.90
38223;DHT22;24024;51.186;6.458;2022-07-06T06:28:31;15.60;66.50
38223;DHT22;24024;51.186;6.458;2022-07-06T06:30:58;15.60;66.30
38223;DHT22;24024;51.186;6.458;2022-07-06T06:33:28;15.80;66.00
38223;DHT22;24024;51.186;6.458;2022-07-06T06:35:54;15.80;65.80
38223;DHT22;24024;51.186;6.458;2022-07-06T06:38:23;15.90;65.60
38223;DHT22;24024;51.186;6.458;2022-07-06T06:40:55;15.80;65.70
38223;DHT22;24024;51.186;6.458;2022-07-06T06:43:22;15.90;65.60
38223;DHT22;24024;51.186;6.458;2022-07-06T06:45:49;16.00;65.30
38223;DHT22;24024;51.186;6.458;2022-07-06T06:48:16;16.10;65.00
38223;DHT22;24024;51.186;6.458;2022-07-06T06:50:45;16.10;64.60
38223;DHT22;24024;51.186;6.458;2022-07-06T06:53:12;16.00;64.90
38223;DHT22;24024;51.186;6.458;2022-07-06T06:55:39;16.10;64.80
38223;DHT22;24024;51.186;6.458;2022-07-06T06:58:06;16.20;64.90
38223;DHT22;24024;51.186;6.458;2022-07-06T07:00:33;16.30;64.70
38223;DHT22;24024;51.186;6.458;2022-07-06T07:03:00;16.50;64.00
38223;DHT22;24024;51.186;6.458;2022-07-06T07:05:29;16.50;63.90
38223;DHT22;24024;51.186;6.458;2022-07-06T07:07:56;16.60;63.10
38223;DHT22;24024;51.186;6.458;2022-07-06T07:10:31;16.60;63.40
38223;DHT22;24024;51.186;6.458;2022-07-06T07:12:58;16.70;62.90
38223;DHT22;24024;51.186;6.458;2022-07-06T07:15:28;16.70;62.10
38223;DHT22;24024;51.186;6.458;2022-07-06T07:17:55;16.80;62.20
38223;DHT22;24024;51.186;6.458;2022-07-06T07:20:24;16.80;62.00
38223;DHT22;24024;51.186;6.458;2022-07-06T07:22:54;16.90;62.10
38223;DHT22;24024;51.186;6.458;2022-07-06T07:25:23;17.00;61.90
38223;DHT22;24024;51.186;6.458;2022-07-06T07:27:52;17.00;61.70
38223;DHT22;24024;51.186;6.458;2022-07-06T07:30:20;17.00;61.20
38223;DHT22;24024;51.186;6.458;2022-07-06T07:32:49;17.10;61.20
38223;DHT22;24024;51.186;6.458;2022-07-06T07:35:15;17.00;61.50
38223;DHT22;24024;51.186;6.458;2022-07-06T07:37:42;17.10;61.80
38223;DHT22;24024;51.186;6.458;2022-07-06T07:40:09;17.10;61.90
38223;DHT22;24024;51.186;6.458;2022-07-06T07:42:36;17.10;61.30
38223;DHT22;24024;51.186;6.458;2022-07-06T07:45:07;17.20;60.70
38223;DHT22;24024;51.186;6.458;2022-07-06T07:47:36;17.20;60.60
38223;DHT22;24024;51.186;6.458;2022-07-06T07:50:04;17.10;60.50
38223;DHT22;24024;51.186;6.458;2022-07-06T07:52:34;17.10;60.60
38223;DHT22;24024;51.186;6.458;2022-07-06T07:55:04;17.10;60.90
38223;DHT22;24024;51.186;6.458;2022-07-06T07:57:51;17.10;60.60
38223;DHT22;24024;51.186;6.458;2022-07-06T08:00:20;17.00;60.30
38223;DHT22;24024;51.186;6.458;2022-07-06T08:02:53;16.90;60.50
38223;DHT22;24024;51.186;6.458;2022-07-06T08:05:23;16.80;60.90
38223;DHT22;24024;51.186;6.458;2022-07-06T08:07:49;16.90;60.90
38223;DHT22;24024;51.186;6.458;2022-07-06T08:10:16;16.90;60.90
38223;DHT22;24024;51.186;6.458;2022-07-06T08:12:48;16.90;60.80
38223;DHT22;24024;51.186;6.458;2022-07-06T08:15:14;17.00;60.90
38223;DHT22;24024;51.186;6.458;2022-07-06T08:17:41;17.10;60.70
38223;DHT22;24024;51.186;6.458;2022-07-06T08:20:08;17.00;61.10
38223;DHT22;24024;51.186;6.458;2022-07-06T08:22:38;17.10;60.90
38223;DHT22;24024;51.186;6.458;2022-07-06T08:25:05;17.10;60.20
38223;DHT22;24024;51.186;6.458;2022-07-06T08:27:34;17.10;60.70
38223;DHT22;24024;51.186;6.458;2022-07-06T08:30:03;17.10;60.40
38223;DHT22;24024;51.186;6.458;2022-07-06T08:32:32;17.20;60.20
38223;DHT22;24024;51.186;6.458;2022-07-06T08:35:22;17.30;59.70
38223;DHT22;24024;51.186;6.458;2022-07-06T08:37:49;17.30;59.80
38223;DHT22;24024;51.186;6.458;2022-07-06T08:40:16;17.40;58.80
38223;DHT22;24024;51.186;6.458;2022-07-06T08:42:44;17.40;58.40
38223;DHT22;24024;51.186;6.458;2022-07-06T08:45:12;17.50;58.20
38223;DHT22;24024;51.186;6.458;2022-07-06T08:47:41;17.50;57.90
38223;DHT22;24024;51.186;6.458;2022-07-06T08:50:11;17.70;57.10
38223;DHT22;24024;51.186;6.458;2022-07-06T08:52:41;17.70;57.00
38223;DHT22;24024;51.186;6.458;2022-07-06T08:55:08;17.70;57.10
38223;DHT22;24024;51.186;6.458;2022-07-06T08:57:36;17.80;57.10
38223;DHT22;24024;51.186;6.458;2022-07-06T09:00:08;18.00;56.40
38223;DHT22;24024;51.186;6.458;2022-07-06T09:02:35;18.10;56.20
38223;DHT22;24024;51.186;6.458;2022-07-06T09:05:03;18.10;55.40
38223;DHT22;24024;51.186;6.458;2022-07-06T09:07:30;18.10;55.00
38223;DHT22;24024;51.186;6.458;2022-07-06T09:10:21;18.10;55.40
38223;DHT22;24024;51.186;6.458;2022-07-06T09:12:49;18.10;55.60
38223;DHT22;24024;51.186;6.458;2022-07-06T09:15:16;18.10;54.10
38223;DHT22;24024;51.186;6.458;2022-07-06T09:17:43;18.10;53.90
38223;DHT22;24024;51.186;6.458;2022-07-06T09:20:12;18.10;53.80
38223;DHT22;24024;51.186;6.458;2022-07-06T09:22:40;18.30;53.10
38223;DHT22;24024;51.186;6.458;2022-07-06T09:25:12;18.40;52.20
38223;DHT22;24024;51.186;6.458;2022-07-06T09:27:43;18.60;52.40
38223;DHT22;24024;51.186;6.458;2022-07-06T09:30:13;18.60;50.70
38223;DHT22;24024;51.186;6.458;2022-07-06T09:32:45;18.80;51.00
38223;DHT22;24024;51.186;6.458;2022-07-06T09:35:30;18.80;49.50
38223;DHT22;24024;51.186;6.458;2022-07-06T09:38:12;19.00;47.10
38223;DHT22;24024;51.186;6.458;2022-07-06T09:40:41;18.90;45.50
38223;DHT22;24024;51.186;6.458;2022-07-06T09:45:35;18.90;46.30
38223;DHT22;24024;51.186;6.458;2022-07-06T09:48:13;18.90;47.50
38223;DHT22;24024;51.186;6.458;2022-07-06T09:50:48;18.80;47.00
38223;DHT22;24024;51.186;6.458;2022-07-06T09:53:15;18.80;47.50
38223;DHT22;24024;51.186;6.458;2022-07-06T09:55:49;18.80;48.10
38223;DHT22;24024;51.186;6.458;2022-07-06T09:58:19;18.80;47.80
38223;DHT22;24024;51.186;6.458;2022-07-06T10:01:08;18.90;48.20
38223;DHT22;24024;51.186;6.458;2022-07-06T10:03:38;19.10;48.00
38223;DHT22;24024;51.186;6.458;2022-07-06T10:06:07;19.20;47.40
38223;DHT22;24024;51.186;6.458;2022-07-06T10:08:37;19.30;47.90
38223;DHT22;24024;51.186;6.458;2022-07-06T10:11:05;19.40;47.30
38223;DHT22;24024;51.186;6.458;2022-07-06T10:13:43;19.50;47.30
38223;DHT22;24024;51.186;6.458;2022-07-06T10:16:10;19.50;48.00
38223;DHT22;24024;51.186;6.458;2022-07-06T10:18:38;19.50;48.50
38223;DHT22;24024;51.186;6.458;2022-07-06T10:21:05;19.40;48.90
38223;DHT22;24024;51.186;6.458;2022-07-06T10:23:34;19.40;48.50
38223;DHT22;24024;51.186;6.458;2022-07-06T10:26:05;19.40;49.00
38223;DHT22;24024;51.186;6.458;2022-07-06T10:28:39;19.40;49.60
38223;DHT22;24024;51.186;6.458;2022-07-06T10:31:08;19.50;48.60
38223;DHT22;24024;51.186;6.458;2022-07-06T10:33:36;19.50;48.90
38223;DHT22;24024;51.186;6.458;2022-07-06T10:36:05;19.50;48.20
38223;DHT22;24024;51.186;6.458;2022-07-06T10:38:39;19.40;49.20
38223;DHT22;24024;51.186;6.458;2022-07-06T10:41:08;19.50;48.50
38223;DHT22;24024;51.186;6.458;2022-07-06T10:43:38;19.60;48.70
38223;DHT22;24024;51.186;6.458;2022-07-06T10:46:09;19.80;48.90
38223;DHT22;24024;51.186;6.458;2022-07-06T10:48:39;20.00;48.10
38223;DHT22;24024;51.186;6.458;2022-07-06T10:51:11;20.20;47.50
38223;DHT22;24024;51.186;6.458;2022-07-06T10:53:45;20.30;47.30
38223;DHT22;24024;51.186;6.458;2022-07-06T10:56:12;20.30;46.80
38223;DHT22;24024;51.186;6.458;2022-07-06T10:58:52;20.30;47.10
38223;DHT22;24024;51.186;6.458;2022-07-06T11:01:21;20.20;47.10
38223;DHT22;24024;51.186;6.458;2022-07-06T11:06:27;20.10;47.40
38223;DHT22;24024;51.186;6.458;2022-07-06T11:14:13;20.50;46.90
38223;DHT22;24024;51.186;6.458;2022-07-06T11:17:00;20.60;47.30
38223;DHT22;24024;51.186;6.458;2022-07-06T11:19:34;20.80;46.00
38223;DHT22;24024;51.186;6.458;2022-07-06T11:22:07;20.70;45.70
38223;DHT22;24024;51.186;6.458;2022-07-06T11:24:37;20.60;45.60
38223;DHT22;24024;51.186;6.458;2022-07-06T11:27:08;20.70;45.50
38223;DHT22;24024;51.186;6.458;2022-07-06T11:29:35;20.80;44.90
38223;DHT22;24024;51.186;6.458;2022-07-06T11:32:07;20.90;45.30
38223;DHT22;24024;51.186;6.458;2022-07-06T11:34:39;20.90;45.30
38223;DHT22;24024;51.186;6.458;2022-07-06T11:37:12;20.80;45.30
38223;DHT22;24024;51.186;6.458;2022-07-06T11:39:43;20.60;45.00
38223;DHT22;24024;51.186;6.458;2022-07-06T11:42:12;20.60;45.00
38223;DHT22;24024;51.186;6.458;2022-07-06T11:44:40;20.60;44.90
38223;DHT22;24024;51.186;6.458;2022-07-06T11:47:12;20.40;43.70
38223;DHT22;24024;51.186;6.458;2022-07-06T11:49:43;20.50;44.00
38223;DHT22;24024;51.186;6.458;2022-07-06T11:52:13;20.50;43.90
38223;DHT22;24024;51.186;6.458;2022-07-06T11:54:43;20.60;44.20
38223;DHT22;24024;51.186;6.458;2022-07-06T11:57:12;20.70;44.70
38223;DHT22;24024;51.186;6.458;2022-07-06T11:59:40;20.80;44.00
38223;DHT22;24024;51.186;6.458;2022-07-06T12:04:39;21.00;44.50
38223;DHT22;24024;51.186;6.458;2022-07-06T12:07:09;21.00;44.50
38223;DHT22;24024;51.186;6.458;2022-07-06T12:09:39;21.00;44.20
38223;DHT22;24024;51.186;6.458;2022-07-06T12:12:08;20.90;43.10
38223;DHT22;24024;51.186;6.458;2022-07-06T12:14:36;20.90;43.30
38223;DHT22;24024;51.186;6.458;2022-07-06T12:17:13;20.90;43.50
38223;DHT22;24024;51.186;6.458;2022-07-06T12:19:41;21.00;42.80
38223;DHT22;24024;51.186;6.458;2022-07-06T12:22:13;21.10;42.70
38223;DHT22;24024;51.186;6.458;2022-07-06T12:24:50;21.10;42.70
38223;DHT22;24024;51.186;6.458;2022-07-06T12:27:20;21.30;43.10
38223;DHT22;24024;51.186;6.458;2022-07-06T12:29:52;21.40;42.30
38223;DHT22;24024;51.186;6.458;2022-07-06T12:32:21;21.50;42.50
38223;DHT22;24024;51.186;6.458;2022-07-06T12:35:07;21.60;41.90
38223;DHT22;24024;51.186;6.458;2022-07-06T12:37:34;21.50;41.80
38223;DHT22;24024;51.186;6.458;2022-07-06T12:40:02;21.30;42.20
38223;DHT22;24024;51.186;6.458;2022-07-06T12:42:51;21.40;42.20
38223;DHT22;24024;51.186;6.458;2022-07-06T12:45:18;21.50;42.90
38223;DHT22;24024;51.186;6.458;2022-07-06T12:48:03;21.50;42.20
38223;DHT22;24024;51.186;6.458;2022-07-06T12:50:39;21.60;41.90
38223;DHT22;24024;51.186;6.458;2022-07-06T12:53:24;21.60;41.90
38223;DHT22;24024;51.186;6.458;2022-07-06T12:56:14;21.80;41.70
38223;DHT22;24024;51.186;6.458;2022-07-06T12:59:04;21.90;41.30
38223;DHT22;24024;51.186;6.458;2022-07-06T13:01:33;21.90;40.90
38223;DHT22;24024;51.186;6.458;2022-07-06T13:03:59;21.70;41.90
38223;DHT22;24024;51.186;6.458;2022-07-06T13:06:31;21.60;42.30
38223;DHT22;24024;51.186;6.458;2022-07-06T13:08:59;21.80;42.40
38223;DHT22;24024;51.186;6.458;2022-07-06T13:11:25;22.00;42.20
38223;DHT22;24024;51.186;6.458;2022-07-06T13:13:52;22.20;42.90
38223;DHT22;24024;51.186;6.458;2022-07-06T13:16:22;22.60;40.90
38223;DHT22;24024;51.186;6.458;2022-07-06T13:18:50;22.90;39.90
38223;DHT22;24024;51.186;6.458;2022-07-06T13:21:17;23.00;39.80
38223;DHT22;24024;51.186;6.458;2022-07-06T13:23:44;23.30;39.80
38223;DHT22;24024;51.186;6.458;2022-07-06T13:26:11;23.50;39.10
38223;DHT22;24024;51.186;6.458;2022-07-06T13:28:37;23.70;38.00
38223;DHT22;24024;51.186;6.458;2022-07-06T13:31:04;23.50;37.90
38223;DHT22;24024;51.186;6.458;2022-07-06T13:33:38;23.60;38.70
38223;DHT22;24024;51.186;6.458;2022-07-06T13:36:05;23.80;38.00
38223;DHT22;24024;51.186;6.458;2022-07-06T13:38:34;23.90;38.00
38223;DHT22;24024;51.186;6.458;2022-07-06T13:41:01;24.20;37.80
38223;DHT22;24024;51.186;6.458;2022-07-06T13:43:30;24.40;37.50
38223;DHT22;24024;51.186;6.458;2022-07-06T13:46:08;24.60;37.40
38223;DHT22;24024;51.186;6.458;2022-07-06T13:48:39;24.80;36.10
38223;DHT22;24024;51.186;6.458;2022-07-06T13:51:06;25.00;35.40
38223;DHT22;24024;51.186;6.458;2022-07-06T13:53:33;25.10;35.00
38223;DHT22;24024;51.186;6.458;2022-07-06T13:56:03;25.20;35.10
38223;DHT22;24024;51.186;6.458;2022-07-06T13:58:30;25.50;35.00
38223;DHT22;24024;51.186;6.458;2022-07-06T14:00:57;25.60;34.70
38223;DHT22;24024;51.186;6.458;2022-07-06T14:03:26;26.00;34.80
38223;DHT22;24024;51.186;6.458;2022-07-06T14:05:58;26.20;33.70
38223;DHT22;24024;51.186;6.458;2022-07-06T14:08:26;26.20;33.70
38223;DHT22;24024;51.186;6.458;2022-07-06T14:10:53;26.30;33.10
38223;DHT22;24024;51.186;6.458;2022-07-06T14:13:21;26.40;33.70
38223;DHT22;24024;51.186;6.458;2022-07-06T14:15:48;26.60;33.50
38223;DHT22;24024;51.186;6.458;2022-07-06T14:18:16;26.60;33.10
38223;DHT22;24024;51.186;6.458;2022-07-06T14:20:45;26.50;33.00
38223;DHT22;24024;51.186;6.458;2022-07-06T14:23:12;26.10;34.50
38223;DHT22;24024;51.186;6.458;2022-07-06T14:25:40;26.20;33.90
38223;DHT22;24024;51.186;6.458;2022-07-06T14:28:07;26.10;33.40
38223;DHT22;24024;51.186;6.458;2022-07-06T14:30:37;25.80;34.30
38223;DHT22;24024;51.186;6.458;2022-07-06T14:33:04;25.60;34.60
38223;DHT22;24024;51.186;6.458;2022-07-06T14:35:36;25.30;35.70
38223;DHT22;24024;51.186;6.458;2022-07-06T14:38:06;25.60;34.70
38223;DHT22;24024;51.186;6.458;2022-07-06T14:40:34;26.00;34.40
38223;DHT22;24024;51.186;6.458;2022-07-06T14:43:02;25.70;33.90
38223;DHT22;24024;51.186;6.458;2022-07-06T14:45:31;25.60;34.90
38223;DHT22;24024;51.186;6.458;2022-07-06T14:47:58;25.60;34.60
38223;DHT22;24024;51.186;6.458;2022-07-06T14:50:28;25.60;34.80
38223;DHT22;24024;51.186;6.458;2022-07-06T14:52:57;26.00;34.80
38223;DHT22;24024;51.186;6.458;2022-07-06T14:55:29;26.30;34.20
38223;DHT22;24024;51.186;6.458;2022-07-06T14:57:58;26.10;33.70
38223;DHT22;24024;51.186;6.458;2022-07-06T15:00:27;25.70;34.20
38223;DHT22;24024;51.186;6.458;2022-07-06T15:02:54;25.90;34.60
38223;DHT22;24024;51.186;6.458;2022-07-06T15:05:23;26.10;33.90
38223;DHT22;24024;51.186;6.458;2022-07-06T15:07:52;26.30;34.40
38223;DHT22;24024;51.186;6.458;2022-07-06T15:10:22;26.50;34.00
38223;DHT22;24024;51.186;6.458;2022-07-06T15:12:49;26.60;33.10
38223;DHT22;24024;51.186;6.458;2022-07-06T15:15:18;26.70;33.20
38223;DHT22;24024;51.186;6.458;2022-07-06T15:18:05;26.60;33.70
38223;DHT22;24024;51.186;6.458;2022-07-06T15:20:32;26.60;33.40
38223;DHT22;24024;51.186;6.458;2022-07-06T15:22:59;26.30;33.50
38223;DHT22;24024;51.186;6.458;2022-07-06T15:25:31;26.00;34.20
38223;DHT22;24024;51.186;6.458;2022-07-06T15:27:58;26.10;34.30
38223;DHT22;24024;51.186;6.458;2022-07-06T15:30:27;26.30;34.10
38223;DHT22;24024;51.186;6.458;2022-07-06T15:33:00;26.30;34.00
38223;DHT22;24024;51.186;6.458;2022-07-06T15:35:29;26.50;33.70
38223;DHT22;24024;51.186;6.458;2022-07-06T15:37:56;26.90;33.50
38223;DHT22;24024;51.186;6.458;2022-07-06T15:40:23;27.10;32.80
38223;DHT22;24024;51.186;6.458;2022-07-06T15:42:54;27.20;32.60
38223;DHT22;24024;51.186;6.458;2022-07-06T15:45:21;27.20;32.50
38223;DHT22;24024;51.186;6.458;2022-07-06T15:47:49;27.20;32.30
38223;DHT22;24024;51.186;6.458;2022-07-06T15:50:16;27.10;32.50
38223;DHT22;24024;51.186;6.458;2022-07-06T15:52:47;27.20;32.70
38223;DHT22;24024;51.186;6.458;2022-07-06T15:55:14;27.30;33.00